createdAt,value
2023-03-29T00:01:10.268Z,4.22
2023-03-29T00:04:14.001Z,4.24
2023-03-29T00:07:15.710Z,4.24
2023-03-29T00:10:17.569Z,4.26
2023-03-29T00:13:19.225Z,4.30
2023-03-29T00:16:21.039Z,4.35
2023-03-29T00:19:22.905Z,4.36
2023-03-29T00:22:24.740Z,4.35
2023-03-29T00:25:27.595Z,4.36
2023-03-29T00:28:29.345Z,4.29
2023-03-29T00:31:31.723Z,4.28
2023-03-29T00:34:36.076Z,4.26
2023-03-29T00:37:38.040Z,4.25
2023-03-29T00:40:44.820Z,4.31
2023-03-29T00:44:04.422Z,4.38
2023-03-29T00:47:06.001Z,4.36
2023-03-29T00:50:16.401Z,4.40
2023-03-29T00:53:18.835Z,4.37
2023-03-29T00:56:27.502Z,4.36
2023-03-29T00:59:33.069Z,4.32
2023-03-29T01:02:39.823Z,4.31
2023-03-29T01:05:46.568Z,4.25
2023-03-29T01:09:01.248Z,4.23
2023-03-29T01:12:13.324Z,4.20
2023-03-29T01:15:20.031Z,4.15
2023-03-29T01:18:23.023Z,4.17
2023-03-29T01:21:37.831Z,4.15
2023-03-29T01:25:15.351Z,4.10
2023-03-29T01:28:22.555Z,4.05
2023-03-29T01:31:36.860Z,4.08
2023-03-29T01:34:42.055Z,4.04
2023-03-29T01:37:57.217Z,4.02
2023-03-29T01:40:58.978Z,4.01
2023-03-29T01:44:10.131Z,4.00
2023-03-29T01:47:42.645Z,3.96
2023-03-29T01:50:49.740Z,3.92
2023-03-29T01:53:59.291Z,3.96
2023-03-29T01:57:04.620Z,3.95
2023-03-29T02:00:10.897Z,3.94
2023-03-29T02:03:17.533Z,3.92
2023-03-29T02:06:23.821Z,3.94
2023-03-29T02:09:27.071Z,3.95
2023-03-29T02:12:29.830Z,3.94
2023-03-29T02:15:31.575Z,3.95
2023-03-29T02:18:35.577Z,3.96
2023-03-29T02:21:48.307Z,3.96
2023-03-29T02:24:52.296Z,3.98
2023-03-29T02:27:56.065Z,3.94
2023-03-29T02:31:20.277Z,3.94
2023-03-29T02:34:49.407Z,3.89
2023-03-29T02:37:54.593Z,3.86
2023-03-29T02:40:58.981Z,3.85
2023-03-29T02:44:02.413Z,3.87
2023-03-29T02:47:22.366Z,3.87
2023-03-29T02:50:32.047Z,3.86
2023-03-29T02:53:42.284Z,3.87
2023-03-29T02:57:05.162Z,3.90
2023-03-29T03:00:10.303Z,3.97
2023-03-29T03:03:13.038Z,3.87
2023-03-29T03:06:15.289Z,3.84
2023-03-29T03:09:17.127Z,3.85
2023-03-29T03:12:21.513Z,3.85
2023-03-29T03:15:23.161Z,3.85
2023-03-29T03:18:24.934Z,3.84
2023-03-29T03:21:28.304Z,3.82
2023-03-29T03:24:29.925Z,3.84
2023-03-29T03:27:33.939Z,3.83
2023-03-29T03:30:35.876Z,3.86
2023-03-29T03:33:53.005Z,3.89
2023-03-29T03:37:21.020Z,3.89
2023-03-29T03:40:22.721Z,3.93
2023-03-29T03:43:24.417Z,3.90
2023-03-29T03:46:28.354Z,3.89
2023-03-29T03:49:32.458Z,3.88
2023-03-29T03:52:34.339Z,3.83
2023-03-29T03:55:36.390Z,3.86
2023-03-29T03:58:44.412Z,3.80
2023-03-29T04:01:46.306Z,3.77
2023-03-29T04:04:51.970Z,3.74
2023-03-29T04:07:56.309Z,3.75
2023-03-29T04:11:33.820Z,3.87
2023-03-29T04:14:35.678Z,3.90
2023-03-29T04:17:43.983Z,3.85
2023-03-29T04:21:04.712Z,3.82
2023-03-29T04:24:08.912Z,3.80
2023-03-29T04:27:13.411Z,3.76
2023-03-29T04:30:15.225Z,3.75
2023-03-29T04:33:46.893Z,3.77
2023-03-29T04:36:52.538Z,3.74
2023-03-29T04:40:00.630Z,3.76
2023-03-29T04:43:08.306Z,3.80
2023-03-29T04:46:15.894Z,3.81
2023-03-29T04:49:35.731Z,3.82
2023-03-29T04:52:42.174Z,3.88
2023-03-29T04:55:46.506Z,3.91
2023-03-29T04:58:53.501Z,3.89
2023-03-29T05:01:56.504Z,3.88
2023-03-29T05:04:58.297Z,3.92
2023-03-29T05:08:00.388Z,3.91
2023-03-29T05:11:10.895Z,3.92
2023-03-29T05:14:12.657Z,3.94
2023-03-29T05:17:14.675Z,4.00
2023-03-29T05:20:17.574Z,4.00
2023-03-29T05:23:22.990Z,4.04
2023-03-29T05:26:51.999Z,4.04
2023-03-29T05:29:54.513Z,4.06
2023-03-29T05:33:02.674Z,4.06
2023-03-29T05:36:08.547Z,4.09
2023-03-29T05:39:14.447Z,4.17
2023-03-29T05:42:19.407Z,4.16
2023-03-29T05:45:29.909Z,4.20
2023-03-29T05:48:36.070Z,4.21
2023-03-29T05:51:38.000Z,4.29
2023-03-29T05:54:40.348Z,4.37
2023-03-29T05:57:42.327Z,4.42
2023-03-29T06:00:44.419Z,4.45
2023-03-29T06:04:06.560Z,4.48
2023-03-29T06:07:16.453Z,4.53
2023-03-29T06:10:25.195Z,4.59
2023-03-29T06:13:34.893Z,4.69
2023-03-29T06:16:38.096Z,4.76
2023-03-29T06:19:40.977Z,4.87
2023-03-29T06:22:43.559Z,4.96
2023-03-29T06:25:47.395Z,5.05
2023-03-29T06:28:51.955Z,5.27
2023-03-29T06:31:54.821Z,5.51
2023-03-29T06:35:16.648Z,5.70
2023-03-29T06:38:26.209Z,5.94
2023-03-29T06:41:44.242Z,6.15
2023-03-29T06:45:00.139Z,6.32
2023-03-29T06:48:03.416Z,6.48
2023-03-29T06:51:07.721Z,6.57
2023-03-29T06:54:09.802Z,6.67
2023-03-29T06:57:16.467Z,6.77
2023-03-29T07:00:27.883Z,6.92
2023-03-29T07:03:52.818Z,6.88
2023-03-29T07:07:02.161Z,6.87
2023-03-29T07:10:07.403Z,6.82
2023-03-29T07:13:28.293Z,6.77
2023-03-29T07:16:32.822Z,6.66
2023-03-29T07:19:44.249Z,6.57
2023-03-29T07:23:05.771Z,6.56
2023-03-29T07:26:08.205Z,6.64
2023-03-29T07:29:10.669Z,6.79
2023-03-29T07:32:12.720Z,6.87
2023-03-29T07:35:21.147Z,6.92
2023-03-29T07:38:23.067Z,6.91
2023-03-29T07:41:32.313Z,7.00
2023-03-29T07:44:41.692Z,7.06
2023-03-29T07:47:44.906Z,7.10
2023-03-29T07:50:46.884Z,7.17
2023-03-29T07:53:49.920Z,7.17
2023-03-29T07:57:17.964Z,7.20
2023-03-29T08:00:28.322Z,7.25
2023-03-29T08:03:50.270Z,7.34
2023-03-29T08:06:52.976Z,7.49
2023-03-29T08:09:56.389Z,7.68
2023-03-29T08:13:11.803Z,7.90
2023-03-29T08:16:29.451Z,8.05
2023-03-29T08:19:39.637Z,8.15
2023-03-29T08:22:43.169Z,8.17
2023-03-29T08:26:03.784Z,7.99
2023-03-29T08:29:06.652Z,7.98
2023-03-29T08:32:08.475Z,7.96
2023-03-29T08:35:10.533Z,7.98
2023-03-29T08:38:24.844Z,8.15
2023-03-29T08:41:45.056Z,8.26
2023-03-29T08:44:47.167Z,8.29
2023-03-29T08:48:11.800Z,8.39
2023-03-29T08:51:41.677Z,8.46
2023-03-29T08:54:47.173Z,8.57
2023-03-29T08:58:08.151Z,8.84
2023-03-29T09:01:11.832Z,9.18
2023-03-29T09:04:42.582Z,9.45
2023-03-29T09:08:03.038Z,9.85
2023-03-29T09:11:23.944Z,10.14
2023-03-29T09:14:52.483Z,10.17
2023-03-29T09:18:07.291Z,10.08
2023-03-29T09:21:18.188Z,9.90
2023-03-29T09:24:41.017Z,9.58
2023-03-29T09:28:04.487Z,9.27
2023-03-29T09:31:35.515Z,8.96
2023-03-29T09:34:49.414Z,8.84
2023-03-29T09:37:55.659Z,8.90
2023-03-29T09:41:05.500Z,8.96
2023-03-29T09:44:27.747Z,9.07
2023-03-29T09:47:40.972Z,9.04
2023-03-29T09:50:51.221Z,9.01
2023-03-29T09:53:56.692Z,8.96
2023-03-29T09:57:33.749Z,8.92
2023-03-29T10:00:36.903Z,9.15
2023-03-29T10:03:40.125Z,9.26
2023-03-29T10:06:52.860Z,9.42
2023-03-29T10:09:56.597Z,9.63
2023-03-29T10:13:10.142Z,9.73
2023-03-29T10:16:28.978Z,9.96
2023-03-29T10:19:35.671Z,10.18
2023-03-29T10:22:38.081Z,10.29
2023-03-29T10:25:42.595Z,10.38
2023-03-29T10:28:45.152Z,10.39
2023-03-29T10:31:48.205Z,10.67
2023-03-29T10:34:51.947Z,10.83
2023-03-29T10:37:56.503Z,10.76
2023-03-29T10:41:12.555Z,10.70
2023-03-29T10:44:38.375Z,10.73
2023-03-29T10:47:45.431Z,10.90
2023-03-29T10:50:52.965Z,10.89
2023-03-29T10:53:56.087Z,10.84
2023-03-29T10:57:10.490Z,10.87
2023-03-29T11:00:27.461Z,11.03
2023-03-29T11:04:23.833Z,11.35
2023-03-29T11:07:45.200Z,11.67
2023-03-29T11:10:54.070Z,11.85
2023-03-29T11:14:33.157Z,11.97
2023-03-29T11:17:54.837Z,12.23
2023-03-29T11:21:14.233Z,12.48
2023-03-29T11:24:33.916Z,12.64
2023-03-29T11:28:04.944Z,12.79
2023-03-29T11:31:15.380Z,13.02
2023-03-29T11:34:53.373Z,13.24
2023-03-29T11:38:39.957Z,13.43
2023-03-29T11:41:44.860Z,13.57
2023-03-29T11:44:54.626Z,13.26
2023-03-29T11:48:00.333Z,13.07
2023-03-29T11:51:18.785Z,13.31
2023-03-29T11:54:45.510Z,13.50
2023-03-29T11:58:02.868Z,13.70
2023-03-29T12:01:10.721Z,13.65
2023-03-29T12:04:22.905Z,13.66
2023-03-29T12:07:36.012Z,13.73
2023-03-29T12:10:47.968Z,13.72
2023-03-29T12:14:02.741Z,13.66
2023-03-29T12:17:12.786Z,14.09
2023-03-29T12:20:38.935Z,14.15
2023-03-29T12:23:44.957Z,13.92
2023-03-29T12:26:56.949Z,13.65
2023-03-29T12:30:33.203Z,13.42
2023-03-29T12:33:43.840Z,13.15
2023-03-29T12:37:52.824Z,13.05
2023-03-29T12:41:28.812Z,12.68
2023-03-29T12:44:34.320Z,12.32
2023-03-29T12:47:53.305Z,12.01
2023-03-29T12:51:06.382Z,11.71
2023-03-29T12:54:17.199Z,12.01
2023-03-29T12:57:26.233Z,12.10
2023-03-29T13:00:42.741Z,11.76
2023-03-29T13:03:56.435Z,11.60
2023-03-29T13:07:08.920Z,11.61
2023-03-29T13:10:31.617Z,11.83
2023-03-29T13:13:37.030Z,11.97
2023-03-29T13:16:40.578Z,12.04
2023-03-29T13:19:59.858Z,11.97
2023-03-29T13:23:36.376Z,11.91
2023-03-29T13:26:53.484Z,12.15
2023-03-29T13:30:32.931Z,12.49
2023-03-29T13:34:00.019Z,12.55
2023-03-29T13:37:28.198Z,13.05
2023-03-29T13:40:29.979Z,13.20
2023-03-29T13:43:37.817Z,13.12
2023-03-29T13:46:42.605Z,13.00
2023-03-29T13:49:51.753Z,12.63
2023-03-29T13:53:04.023Z,12.24
2023-03-29T13:56:11.165Z,11.94
2023-03-29T13:59:25.413Z,11.54
2023-03-29T14:02:47.368Z,11.28
2023-03-29T14:05:58.063Z,11.16
2023-03-29T14:09:05.321Z,11.20
2023-03-29T14:12:10.955Z,11.27
2023-03-29T14:15:38.402Z,11.40
2023-03-29T14:18:42.130Z,11.58
2023-03-29T14:21:46.579Z,11.52
2023-03-29T14:24:54.043Z,11.35
2023-03-29T14:27:55.850Z,11.34
2023-03-29T14:31:01.797Z,11.54
2023-03-29T14:34:08.846Z,11.91
2023-03-29T14:37:14.822Z,12.23
2023-03-29T14:40:20.138Z,12.42
2023-03-29T14:43:24.124Z,12.36
2023-03-29T14:46:30.038Z,12.09
2023-03-29T14:49:34.727Z,11.86
2023-03-29T14:52:37.261Z,11.55
2023-03-29T14:55:40.525Z,11.18
2023-03-29T14:58:48.833Z,10.94
2023-03-29T15:01:54.161Z,10.85
2023-03-29T15:05:23.698Z,10.87
2023-03-29T15:08:38.263Z,10.92
2023-03-29T15:11:40.469Z,11.02
2023-03-29T15:14:43.829Z,11.12
2023-03-29T15:17:51.017Z,11.18
2023-03-29T15:20:59.914Z,11.38
2023-03-29T15:24:04.564Z,11.54
2023-03-29T15:27:23.725Z,11.66
2023-03-29T15:30:40.157Z,11.73
2023-03-29T15:33:44.157Z,11.77
2023-03-29T15:36:47.100Z,11.81
2023-03-29T15:39:49.144Z,11.84
2023-03-29T15:42:53.224Z,11.90
2023-03-29T15:45:57.900Z,11.86
2023-03-29T15:49:04.000Z,11.85
2023-03-29T15:52:06.761Z,11.83
2023-03-29T15:55:09.596Z,11.80
2023-03-29T15:58:22.930Z,11.73
2023-03-29T16:01:39.015Z,11.65
2023-03-29T16:04:40.841Z,11.52
2023-03-29T16:07:43.016Z,11.35
2023-03-29T16:10:47.240Z,11.17
2023-03-29T16:13:49.084Z,11.03
2023-03-29T16:17:03.566Z,10.90
2023-03-29T16:20:05.999Z,10.84
2023-03-29T16:23:14.504Z,10.75
2023-03-29T16:26:17.252Z,10.65
2023-03-29T16:29:19.387Z,10.50
2023-03-29T16:32:21.252Z,10.34
2023-03-29T16:35:32.123Z,10.19
2023-03-29T16:38:34.468Z,10.07
2023-03-29T16:41:37.445Z,9.99
2023-03-29T16:44:39.698Z,9.94
2023-03-29T16:47:48.628Z,9.90
2023-03-29T16:50:50.824Z,9.88
2023-03-29T16:53:57.846Z,9.83
2023-03-29T16:56:59.661Z,9.78
2023-03-29T17:00:02.484Z,9.74
2023-03-29T17:03:05.509Z,9.71
2023-03-29T17:06:12.751Z,9.74
2023-03-29T17:09:15.310Z,9.72
2023-03-29T17:12:17.589Z,9.71
2023-03-29T17:15:19.770Z,9.65
2023-03-29T17:18:23.795Z,9.64
2023-03-29T17:21:26.528Z,9.60
2023-03-29T17:24:33.873Z,9.55
2023-03-29T17:27:38.140Z,9.50
2023-03-29T17:30:41.181Z,9.46
2023-03-29T17:33:43.289Z,9.40
2023-03-29T17:36:49.117Z,9.34
2023-03-29T17:39:51.111Z,9.32
2023-03-29T17:42:53.428Z,9.26
2023-03-29T17:45:55.971Z,9.24
2023-03-29T17:49:00.289Z,9.19
2023-03-29T17:52:03.016Z,9.14
2023-03-29T17:55:11.324Z,9.10
2023-03-29T17:58:13.232Z,9.06
2023-03-29T18:01:24.759Z,9.03
2023-03-29T18:04:26.826Z,9.03
2023-03-29T18:07:29.927Z,9.00
2023-03-29T18:10:32.677Z,8.96
2023-03-29T18:13:36.083Z,8.92
2023-03-29T18:16:38.706Z,8.87
2023-03-29T18:19:44.006Z,8.86
2023-03-29T18:22:46.124Z,8.82
2023-03-29T18:25:48.394Z,8.81
2023-03-29T18:28:52.391Z,8.78
2023-03-29T18:31:54.937Z,8.73
2023-03-29T18:34:59.565Z,8.71
2023-03-29T18:38:06.704Z,8.68
2023-03-29T18:41:14.238Z,8.64
2023-03-29T18:44:16.643Z,8.62
2023-03-29T18:47:18.750Z,8.58
2023-03-29T18:50:23.470Z,8.60
2023-03-29T18:53:28.545Z,8.61
2023-03-29T18:56:32.311Z,8.62
2023-03-29T18:59:39.396Z,8.64
2023-03-29T19:02:43.741Z,8.75
2023-03-29T19:05:53.030Z,8.71
2023-03-29T19:09:06.632Z,8.66
2023-03-29T19:12:58.715Z,8.63
2023-03-29T19:15:39.982Z,8.59
2023-03-29T19:18:45.053Z,8.57
2023-03-29T19:29:53.150Z,8.54
2023-03-29T19:33:10.284Z,8.54
2023-03-29T19:36:16.352Z,8.52
2023-03-29T19:39:18.367Z,8.52
2023-03-29T19:42:31.940Z,8.53
2023-03-29T19:45:42.968Z,8.52
2023-03-29T19:49:05.161Z,8.52
2023-03-29T19:52:08.105Z,8.51
2023-03-29T19:55:10.929Z,8.52
2023-03-29T19:58:15.530Z,8.49
2023-03-29T20:01:32.161Z,8.46
2023-03-29T20:04:36.815Z,8.43
2023-03-29T20:07:41.445Z,8.41
2023-03-29T20:10:44.142Z,8.37
2023-03-29T20:13:45.953Z,8.36
2023-03-29T20:16:49.899Z,8.33
2023-03-29T20:19:55.664Z,8.32
2023-03-29T20:23:04.662Z,8.31
2023-03-29T20:26:10.534Z,8.35
2023-03-29T20:29:14.672Z,8.33
2023-03-29T20:32:16.405Z,8.33
2023-03-29T20:35:18.028Z,8.32
2023-03-29T20:38:19.809Z,8.34
2023-03-29T20:41:23.056Z,8.34
2023-03-29T20:44:26.419Z,8.32
2023-03-29T20:47:29.602Z,8.33
2023-03-29T20:50:33.698Z,8.33
2023-03-29T20:53:35.952Z,8.33
2023-03-29T20:56:40.244Z,8.34
2023-03-29T20:59:43.704Z,8.37
2023-03-29T21:02:46.984Z,8.41
2023-03-29T21:05:55.220Z,8.40
2023-03-29T21:08:57.521Z,8.44
2023-03-29T21:11:59.191Z,8.48
2023-03-29T21:15:02.426Z,8.50
2023-03-29T21:18:07.850Z,8.48
2023-03-29T21:21:10.942Z,8.46
2023-03-29T21:24:15.607Z,8.45
2023-03-29T21:27:18.362Z,8.45
2023-03-29T21:30:20.256Z,8.49
2023-03-29T21:33:22.298Z,8.50
2023-03-29T21:36:24.580Z,8.49
2023-03-29T21:39:29.195Z,8.48
2023-03-29T21:42:30.780Z,8.48
2023-03-29T21:45:32.459Z,8.50
2023-03-29T21:48:34.120Z,8.53
2023-03-29T21:51:36.074Z,8.53
2023-03-29T21:54:37.932Z,8.56
2023-03-29T21:57:39.901Z,8.56
2023-03-29T22:00:41.647Z,8.56
2023-03-29T22:03:44.393Z,8.57
2023-03-29T22:06:46.597Z,8.57
2023-03-29T22:09:48.465Z,8.58
2023-03-29T22:12:51.761Z,8.60
2023-03-29T22:16:01.220Z,8.58
2023-03-29T22:19:04.200Z,8.59
2023-03-29T22:22:06.584Z,8.54
2023-03-29T22:25:12.031Z,8.48
2023-03-29T22:28:13.999Z,8.40
2023-03-29T22:31:17.635Z,8.31
2023-03-29T22:34:19.558Z,8.29
2023-03-29T22:37:22.621Z,8.26
2023-03-29T22:40:27.637Z,8.23
2023-03-29T22:43:29.264Z,8.27
2023-03-29T22:46:31.876Z,8.36
2023-03-29T22:49:33.687Z,8.33
2023-03-29T22:52:36.470Z,8.33
2023-03-29T22:55:37.998Z,8.26
2023-03-29T22:58:39.789Z,8.23
2023-03-29T23:01:41.606Z,8.26
2023-03-29T23:04:45.509Z,8.24
2023-03-29T23:07:47.358Z,8.23
2023-03-29T23:11:23.732Z,8.18
2023-03-29T23:15:01.323Z,8.14
2023-03-29T23:18:04.718Z,8.08
2023-03-29T23:21:07.832Z,8.05
2023-03-29T23:24:10.603Z,8.06
2023-03-29T23:27:15.032Z,8.07
2023-03-29T23:30:18.542Z,8.11
2023-03-29T23:33:21.907Z,8.11
2023-03-29T23:36:25.683Z,8.13
2023-03-29T23:39:27.598Z,8.15
2023-03-29T23:42:29.780Z,8.16
2023-03-29T23:45:31.854Z,8.13
2023-03-29T23:48:34.311Z,8.08
2023-03-29T23:51:36.822Z,8.09
2023-03-29T23:54:39.539Z,8.10
2023-03-29T23:57:41.966Z,8.08
